Terminal Aerodrome Forecast
Issued by NWS Sioux Falls, SD

Home | Current Version | Previous Version | Text Only | Print | Product List | Glossary On
Versions: 1 2 3 4 5 6 7 8 9 10 11 12 13 14 15 16 17 18 19 20 21 22 23 24 25 26 27 28 29 30 31
000
FTUS43 KFSD 242000 AAA
TAFSUX
TAF AMD
KSUX 242009Z 2420/2518 15014G20KT P6SM SCT100 SCT200
     FM250200 15012G18KT P6SM SCT120 BKN200
     FM251100 15011KT P6SM BKN200
     FM251700 27010KT P6SM SCT040=

USA.gov is the U.S. government's official web portal to all federal, state and local government web resources and services.